WMT4902 EPKK-LIPZ
Flight info
| Callsign | WMT4902 |
|---|---|
| Flight time | 1h 27m |
| Altitude | 34000 |
| Route | BABKO DCT VADEX DCT KOPAT DCT MAREG DCT NIGSI DCT RADLY DCT ROSKA M859 TULIK DCT BASOG |
| Aircraft | A321/M-SDE1E2E3FGIJ1J4RWXY/LB1 |
Departure
| Time | 2026-05-07 15:47 |
|---|---|
| Airport | Kraków John Paul II International Airport (EPKK) |
Arrival
| Time | 2026-05-07 17:15 |
|---|---|
| Airport | Venice Marco Polo Airport (LIPZ) |
| Time | Latitude | Longitude | Altitude | Speed | Heading |
|---|---|---|---|---|---|
| 2026-05-07 15:19 | 50.07578 | 19.80099 | 790 ft | 0 kts | 348° |
| 2026-05-07 15:40 | 50.07586 | 19.80096 | 763 ft | 1 kts | 348° |
| 2026-05-07 15:41 | 50.07604 | 19.80093 | 790 ft | 5 kts | 1° |
| 2026-05-07 15:41 | 50.07631 | 19.80138 | 790 ft | 8 kts | 69° |
| 2026-05-07 15:41 | 50.07647 | 19.80236 | 791 ft | 11 kts | 77° |
| 2026-05-07 15:41 | 50.07667 | 19.80354 | 791 ft | 10 kts | 62° |
| 2026-05-07 15:42 | 50.07723 | 19.80376 | 791 ft | 8 kts | 352° |
| 2026-05-07 15:42 | 50.07744 | 19.80369 | 791 ft | 2 kts | 347° |
| 2026-05-07 15:42 | 50.07769 | 19.80360 | 791 ft | 5 kts | 347° |
| 2026-05-07 15:42 | 50.07789 | 19.80353 | 791 ft | 0 kts | 347° |
| 2026-05-07 15:43 | 50.07794 | 19.80352 | 791 ft | 3 kts | 347° |
| 2026-05-07 15:44 | 50.07834 | 19.80338 | 791 ft | 8 kts | 347° |
| 2026-05-07 15:44 | 50.07845 | 19.80334 | 791 ft | 0 kts | 348° |
| 2026-05-07 15:45 | 50.07853 | 19.80332 | 791 ft | 4 kts | 348° |
| 2026-05-07 15:45 | 50.07896 | 19.80317 | 790 ft | 9 kts | 348° |
| 2026-05-07 15:45 | 50.07969 | 19.80291 | 790 ft | 13 kts | 342° |
| 2026-05-07 15:45 | 50.08007 | 19.80173 | 790 ft | 14 kts | 266° |
| 2026-05-07 15:46 | 50.07998 | 19.80090 | 790 ft | 0 kts | 258° |
| 2026-05-07 15:46 | 50.07997 | 19.80083 | 791 ft | 6 kts | 258° |
| 2026-05-07 15:47 | 50.07931 | 19.79621 | 791 ft | 81 kts | 257° |
| 2026-05-07 15:47 | 50.07762 | 19.78423 | 793 ft | 142 kts | 257° |
| 2026-05-07 15:47 | 50.07522 | 19.76759 | 1192 ft | 156 kts | 256° |
| 2026-05-07 15:47 | 50.07276 | 19.75134 | 1965 ft | 154 kts | 256° |
| 2026-05-07 15:48 | 50.07040 | 19.73440 | 2407 ft | 170 kts | 257° |
| 2026-05-07 15:48 | 50.06779 | 19.71532 | 2679 ft | 191 kts | 258° |
| 2026-05-07 15:48 | 50.06487 | 19.69400 | 2865 ft | 213 kts | 257° |
| 2026-05-07 15:48 | 50.06150 | 19.67016 | 3150 ft | 235 kts | 253° |
| 2026-05-07 15:49 | 50.05294 | 19.64901 | 3964 ft | 236 kts | 218° |
| 2026-05-07 15:49 | 50.03724 | 19.63965 | 4524 ft | 256 kts | 185° |
| 2026-05-07 15:49 | 50.01885 | 19.64226 | 5195 ft | 268 kts | 170° |
| 2026-05-07 15:49 | 50.00083 | 19.64951 | 6001 ft | 272 kts | 166° |
| 2026-05-07 15:50 | 49.98242 | 19.65809 | 6813 ft | 275 kts | 165° |
| 2026-05-07 15:50 | 49.96401 | 19.66643 | 7613 ft | 277 kts | 167° |
| 2026-05-07 15:50 | 49.94531 | 19.67426 | 8401 ft | 279 kts | 168° |
| 2026-05-07 15:50 | 49.92640 | 19.68151 | 9208 ft | 281 kts | 169° |
| 2026-05-07 15:51 | 49.90729 | 19.68837 | 10000 ft | 283 kts | 170° |
| 2026-05-07 15:51 | 49.88797 | 19.69188 | 10693 ft | 283 kts | 184° |
| 2026-05-07 15:51 | 49.86834 | 19.68707 | 11438 ft | 283 kts | 199° |
| 2026-05-07 15:51 | 49.84994 | 19.67445 | 11814 ft | 300 kts | 210° |
| 2026-05-07 15:52 | 49.83109 | 19.65805 | 11987 ft | 322 kts | 210° |
| 2026-05-07 15:52 | 49.81125 | 19.64073 | 12478 ft | 331 kts | 210° |
| 2026-05-07 15:52 | 49.79097 | 19.62315 | 13167 ft | 336 kts | 209° |
| 2026-05-07 15:52 | 49.77046 | 19.60545 | 13873 ft | 339 kts | 209° |
| 2026-05-07 15:53 | 49.74978 | 19.58766 | 14530 ft | 341 kts | 208° |
| 2026-05-07 15:53 | 49.72898 | 19.56984 | 15182 ft | 343 kts | 208° |
| 2026-05-07 15:53 | 49.70798 | 19.55187 | 15837 ft | 346 kts | 208° |
| 2026-05-07 15:53 | 49.68689 | 19.53384 | 16519 ft | 348 kts | 208° |
| 2026-05-07 15:54 | 49.66563 | 19.51567 | 17197 ft | 350 kts | 208° |
| 2026-05-07 15:54 | 49.64425 | 19.49742 | 17861 ft | 352 kts | 208° |
| 2026-05-07 15:54 | 49.62284 | 19.47880 | 18443 ft | 355 kts | 211° |
| 2026-05-07 15:54 | 49.60325 | 19.45546 | 19000 ft | 359 kts | 222° |
| 2026-05-07 15:55 | 49.58593 | 19.42746 | 19566 ft | 362 kts | 225° |
| 2026-05-07 15:55 | 49.57430 | 19.40831 | 19950 ft | 363 kts | 225° |
| 2026-05-07 15:55 | 49.55701 | 19.37995 | 20532 ft | 365 kts | 224° |
| 2026-05-07 15:55 | 49.53949 | 19.35130 | 21110 ft | 367 kts | 224° |
| 2026-05-07 15:56 | 49.52192 | 19.32270 | 21681 ft | 370 kts | 224° |
| 2026-05-07 15:56 | 49.50417 | 19.29388 | 22257 ft | 372 kts | 224° |
| 2026-05-07 15:56 | 49.48633 | 19.26492 | 22826 ft | 374 kts | 224° |
| 2026-05-07 15:56 | 49.46837 | 19.23576 | 23356 ft | 376 kts | 224° |
| 2026-05-07 15:57 | 49.45039 | 19.20657 | 23828 ft | 378 kts | 224° |
| 2026-05-07 15:57 | 49.43225 | 19.17712 | 24270 ft | 380 kts | 224° |
| 2026-05-07 15:57 | 49.41408 | 19.14762 | 24712 ft | 381 kts | 224° |
| 2026-05-07 15:57 | 49.39583 | 19.11803 | 25146 ft | 383 kts | 224° |
| 2026-05-07 15:58 | 49.37742 | 19.08824 | 25574 ft | 384 kts | 224° |
| 2026-05-07 15:58 | 49.35891 | 19.05840 | 25983 ft | 386 kts | 224° |
| 2026-05-07 15:58 | 49.34033 | 19.02854 | 26399 ft | 388 kts | 224° |
| 2026-05-07 15:58 | 49.32174 | 18.99870 | 26812 ft | 389 kts | 224° |
| 2026-05-07 15:59 | 49.30290 | 18.96851 | 27235 ft | 391 kts | 224° |
| 2026-05-07 15:59 | 49.28403 | 18.93830 | 27657 ft | 393 kts | 224° |
| 2026-05-07 15:59 | 49.26511 | 18.90800 | 28077 ft | 394 kts | 224° |
| 2026-05-07 15:59 | 49.24612 | 18.87751 | 28500 ft | 396 kts | 224° |
| 2026-05-07 16:00 | 49.22705 | 18.84690 | 28889 ft | 398 kts | 224° |
| 2026-05-07 16:00 | 49.20796 | 18.81632 | 29276 ft | 400 kts | 224° |
| 2026-05-07 16:00 | 49.18866 | 18.78543 | 29629 ft | 401 kts | 225° |
| 2026-05-07 16:00 | 49.16935 | 18.75460 | 30010 ft | 403 kts | 225° |
| 2026-05-07 16:01 | 49.14963 | 18.72323 | 30349 ft | 404 kts | 224° |
| 2026-05-07 16:01 | 49.13008 | 18.69221 | 30694 ft | 405 kts | 224° |
| 2026-05-07 16:01 | 49.11056 | 18.66122 | 31028 ft | 407 kts | 225° |
| 2026-05-07 16:01 | 49.09233 | 18.62803 | 31449 ft | 406 kts | 229° |
| 2026-05-07 16:02 | 49.07469 | 18.59448 | 31940 ft | 403 kts | 229° |
| 2026-05-07 16:02 | 49.05720 | 18.56124 | 32431 ft | 400 kts | 229° |
| 2026-05-07 16:02 | 49.03982 | 18.52827 | 32920 ft | 397 kts | 229° |
| 2026-05-07 16:02 | 49.02255 | 18.49562 | 33394 ft | 395 kts | 229° |
| 2026-05-07 16:03 | 49.00532 | 18.46310 | 33849 ft | 393 kts | 229° |
| 2026-05-07 16:03 | 48.98816 | 18.43080 | 33959 ft | 391 kts | 229° |
| 2026-05-07 16:03 | 48.97109 | 18.39867 | 33976 ft | 390 kts | 229° |
| 2026-05-07 16:04 | 48.93697 | 18.33450 | 33972 ft | 390 kts | 229° |
| 2026-05-07 16:04 | 48.90278 | 18.27037 | 33979 ft | 391 kts | 229° |
| 2026-05-07 16:05 | 48.86825 | 18.20599 | 33973 ft | 393 kts | 228° |
| 2026-05-07 16:05 | 48.83371 | 18.14172 | 33975 ft | 393 kts | 228° |
| 2026-05-07 16:06 | 48.79915 | 18.07738 | 33970 ft | 394 kts | 228° |
| 2026-05-07 16:06 | 48.76456 | 18.01301 | 33975 ft | 394 kts | 229° |
| 2026-05-07 16:07 | 48.72993 | 17.94865 | 33976 ft | 394 kts | 228° |
| 2026-05-07 16:07 | 48.69509 | 17.88444 | 33971 ft | 395 kts | 228° |
| 2026-05-07 16:08 | 48.65997 | 17.81988 | 33978 ft | 395 kts | 228° |
| 2026-05-07 16:08 | 48.62511 | 17.75563 | 33976 ft | 395 kts | 228° |
| 2026-05-07 16:09 | 48.59031 | 17.69170 | 33975 ft | 395 kts | 228° |
| 2026-05-07 16:09 | 48.55533 | 17.62777 | 33975 ft | 394 kts | 228° |
| 2026-05-07 16:10 | 48.52031 | 17.56383 | 33976 ft | 394 kts | 228° |
| 2026-05-07 16:10 | 48.48543 | 17.50021 | 33970 ft | 394 kts | 228° |
| 2026-05-07 16:11 | 48.45040 | 17.43658 | 33969 ft | 394 kts | 228° |
| 2026-05-07 16:11 | 48.41525 | 17.37298 | 33972 ft | 395 kts | 228° |
| 2026-05-07 16:12 | 48.38012 | 17.30942 | 33973 ft | 396 kts | 228° |
| 2026-05-07 16:12 | 48.34479 | 17.24567 | 33974 ft | 397 kts | 228° |
| 2026-05-07 16:13 | 48.30938 | 17.18184 | 33975 ft | 397 kts | 228° |
| 2026-05-07 16:13 | 48.27394 | 17.11815 | 33972 ft | 398 kts | 228° |
| 2026-05-07 16:14 | 48.23833 | 17.05452 | 33974 ft | 398 kts | 228° |
| 2026-05-07 16:14 | 48.20241 | 16.99040 | 33974 ft | 399 kts | 228° |
| 2026-05-07 16:15 | 48.16133 | 16.93528 | 33973 ft | 398 kts | 217° |
| 2026-05-07 16:15 | 48.11754 | 16.88471 | 33972 ft | 398 kts | 217° |
| 2026-05-07 16:16 | 48.07365 | 16.83402 | 33974 ft | 398 kts | 217° |
| 2026-05-07 16:16 | 48.02977 | 16.78342 | 33974 ft | 398 kts | 217° |
| 2026-05-07 16:17 | 47.98586 | 16.73299 | 33976 ft | 398 kts | 217° |
| 2026-05-07 16:17 | 47.94193 | 16.68270 | 33971 ft | 398 kts | 217° |
| 2026-05-07 16:18 | 47.89800 | 16.63247 | 33974 ft | 398 kts | 217° |
| 2026-05-07 16:18 | 47.85405 | 16.58227 | 33975 ft | 398 kts | 217° |
| 2026-05-07 16:19 | 47.81011 | 16.53223 | 33976 ft | 398 kts | 217° |
| 2026-05-07 16:19 | 47.76612 | 16.48231 | 33976 ft | 397 kts | 217° |
| 2026-05-07 16:20 | 47.72185 | 16.43217 | 33978 ft | 397 kts | 217° |
| 2026-05-07 16:20 | 47.67798 | 16.38260 | 33973 ft | 396 kts | 217° |
| 2026-05-07 16:21 | 47.63406 | 16.33307 | 33975 ft | 396 kts | 217° |
| 2026-05-07 16:21 | 47.59010 | 16.28347 | 33979 ft | 398 kts | 218° |
| 2026-05-07 16:22 | 47.54599 | 16.23380 | 33977 ft | 399 kts | 218° |
| 2026-05-07 16:22 | 47.50176 | 16.18412 | 33976 ft | 400 kts | 218° |
| 2026-05-07 16:23 | 47.45735 | 16.13440 | 33977 ft | 401 kts | 218° |
| 2026-05-07 16:23 | 47.41286 | 16.08476 | 33971 ft | 402 kts | 218° |
| 2026-05-07 16:24 | 47.36813 | 16.03502 | 33977 ft | 402 kts | 218° |
| 2026-05-07 16:24 | 47.32389 | 15.98443 | 33963 ft | 403 kts | 219° |
| 2026-05-07 16:25 | 47.27998 | 15.93282 | 33969 ft | 404 kts | 219° |
| 2026-05-07 16:25 | 47.24311 | 15.88968 | 33959 ft | 404 kts | 219° |
| 2026-05-07 16:26 | 47.19883 | 15.83841 | 33955 ft | 405 kts | 219° |
| 2026-05-07 16:26 | 47.15443 | 15.78727 | 33943 ft | 406 kts | 219° |
| 2026-05-07 16:27 | 47.10997 | 15.73610 | 33931 ft | 406 kts | 219° |
| 2026-05-07 16:27 | 47.06545 | 15.68496 | 33926 ft | 407 kts | 219° |
| 2026-05-07 16:28 | 47.02092 | 15.63392 | 33924 ft | 407 kts | 219° |
| 2026-05-07 16:28 | 46.97604 | 15.58241 | 33921 ft | 407 kts | 219° |
| 2026-05-07 16:29 | 46.93132 | 15.53137 | 33921 ft | 408 kts | 219° |
| 2026-05-07 16:29 | 46.88653 | 15.48041 | 33944 ft | 408 kts | 219° |
| 2026-05-07 16:30 | 46.84172 | 15.42961 | 33938 ft | 408 kts | 219° |
| 2026-05-07 16:30 | 46.79690 | 15.37865 | 33933 ft | 408 kts | 220° |
| 2026-05-07 16:31 | 46.75208 | 15.32781 | 33931 ft | 408 kts | 219° |
| 2026-05-07 16:31 | 46.70713 | 15.27720 | 33924 ft | 408 kts | 219° |
| 2026-05-07 16:32 | 46.66219 | 15.22648 | 33921 ft | 408 kts | 220° |
| 2026-05-07 16:32 | 46.62368 | 15.16678 | 33920 ft | 406 kts | 232° |
| 2026-05-07 16:33 | 46.58851 | 15.10209 | 33920 ft | 406 kts | 232° |
| 2026-05-07 16:33 | 46.55354 | 15.03806 | 33919 ft | 406 kts | 232° |
| 2026-05-07 16:34 | 46.51810 | 14.97340 | 33921 ft | 406 kts | 232° |
| 2026-05-07 16:34 | 46.48314 | 14.90980 | 33921 ft | 405 kts | 232° |
| 2026-05-07 16:35 | 46.44768 | 14.84551 | 33932 ft | 405 kts | 232° |
| 2026-05-07 16:35 | 46.41247 | 14.78175 | 33943 ft | 405 kts | 232° |
| 2026-05-07 16:36 | 46.37729 | 14.71815 | 33953 ft | 405 kts | 232° |
| 2026-05-07 16:36 | 46.34204 | 14.65459 | 33965 ft | 404 kts | 232° |
| 2026-05-07 16:37 | 46.30673 | 14.59119 | 33966 ft | 404 kts | 232° |
| 2026-05-07 16:37 | 46.27146 | 14.52784 | 33977 ft | 404 kts | 232° |
| 2026-05-07 16:38 | 46.23616 | 14.46440 | 33976 ft | 403 kts | 232° |
| 2026-05-07 16:38 | 46.20088 | 14.40140 | 33972 ft | 403 kts | 232° |
| 2026-05-07 16:39 | 46.16564 | 14.33859 | 33974 ft | 403 kts | 232° |
| 2026-05-07 16:39 | 46.13033 | 14.27591 | 33970 ft | 402 kts | 231° |
| 2026-05-07 16:40 | 46.09509 | 14.21326 | 33967 ft | 402 kts | 231° |
| 2026-05-07 16:40 | 46.05989 | 14.15089 | 33970 ft | 401 kts | 231° |
| 2026-05-07 16:41 | 46.02468 | 14.08855 | 33973 ft | 401 kts | 231° |
| 2026-05-07 16:41 | 45.98945 | 14.02650 | 33976 ft | 400 kts | 231° |
| 2026-05-07 16:42 | 45.95427 | 13.96466 | 33962 ft | 399 kts | 231° |
| 2026-05-07 16:42 | 45.93672 | 13.93388 | 33558 ft | 395 kts | 231° |
| 2026-05-07 16:42 | 45.91943 | 13.90358 | 33238 ft | 388 kts | 231° |
| 2026-05-07 16:42 | 45.90248 | 13.87391 | 32971 ft | 381 kts | 231° |
| 2026-05-07 16:43 | 45.88582 | 13.84477 | 32673 ft | 375 kts | 231° |
| 2026-05-07 16:43 | 45.86919 | 13.81570 | 32255 ft | 370 kts | 232° |
| 2026-05-07 16:43 | 45.85315 | 13.78770 | 31842 ft | 365 kts | 232° |
| 2026-05-07 16:43 | 45.83692 | 13.75937 | 31428 ft | 361 kts | 232° |
| 2026-05-07 16:44 | 45.82114 | 13.73179 | 31023 ft | 357 kts | 232° |
| 2026-05-07 16:44 | 45.80546 | 13.70441 | 30623 ft | 353 kts | 232° |
| 2026-05-07 16:44 | 45.78997 | 13.67744 | 30220 ft | 349 kts | 232° |
| 2026-05-07 16:44 | 45.77463 | 13.65079 | 29796 ft | 345 kts | 232° |
| 2026-05-07 16:45 | 45.75943 | 13.62442 | 29406 ft | 341 kts | 232° |
| 2026-05-07 16:45 | 45.74443 | 13.59837 | 29031 ft | 336 kts | 232° |
| 2026-05-07 16:45 | 45.72968 | 13.57276 | 28663 ft | 332 kts | 232° |
| 2026-05-07 16:45 | 45.71502 | 13.54740 | 28304 ft | 329 kts | 231° |
| 2026-05-07 16:46 | 45.70050 | 13.52233 | 27936 ft | 325 kts | 231° |
| 2026-05-07 16:46 | 45.68616 | 13.49757 | 27596 ft | 321 kts | 231° |
| 2026-05-07 16:46 | 45.67205 | 13.47316 | 27251 ft | 318 kts | 231° |
| 2026-05-07 16:46 | 45.65802 | 13.44881 | 26919 ft | 316 kts | 231° |
| 2026-05-07 16:47 | 45.64406 | 13.42459 | 26591 ft | 315 kts | 231° |
| 2026-05-07 16:47 | 45.62973 | 13.39992 | 26223 ft | 331 kts | 231° |
| 2026-05-07 16:47 | 45.61480 | 13.37423 | 25844 ft | 338 kts | 231° |
| 2026-05-07 16:47 | 45.59976 | 13.34844 | 25476 ft | 338 kts | 231° |
| 2026-05-07 16:48 | 45.58473 | 13.32265 | 25115 ft | 338 kts | 231° |
| 2026-05-07 16:48 | 45.56967 | 13.29679 | 24753 ft | 337 kts | 231° |
| 2026-05-07 16:48 | 45.55472 | 13.27111 | 24398 ft | 336 kts | 231° |
| 2026-05-07 16:48 | 45.53981 | 13.24545 | 24048 ft | 335 kts | 231° |
| 2026-05-07 16:49 | 45.52489 | 13.21982 | 23693 ft | 335 kts | 231° |
| 2026-05-07 16:49 | 45.51002 | 13.19438 | 23312 ft | 334 kts | 231° |
| 2026-05-07 16:49 | 45.49510 | 13.16895 | 22902 ft | 333 kts | 230° |
| 2026-05-07 16:49 | 45.48026 | 13.14368 | 22490 ft | 331 kts | 230° |
| 2026-05-07 16:50 | 45.46547 | 13.11851 | 22086 ft | 329 kts | 230° |
| 2026-05-07 16:50 | 45.45077 | 13.09354 | 21690 ft | 328 kts | 230° |
| 2026-05-07 16:50 | 45.43617 | 13.06872 | 21283 ft | 326 kts | 230° |
| 2026-05-07 16:50 | 45.42165 | 13.04399 | 20915 ft | 325 kts | 231° |
| 2026-05-07 16:51 | 45.40719 | 13.01933 | 20530 ft | 323 kts | 231° |
| 2026-05-07 16:51 | 45.39279 | 12.99482 | 20162 ft | 322 kts | 230° |
| 2026-05-07 16:51 | 45.37845 | 12.97043 | 19794 ft | 320 kts | 230° |
| 2026-05-07 16:51 | 45.36417 | 12.94624 | 19428 ft | 319 kts | 230° |
| 2026-05-07 16:52 | 45.34994 | 12.92217 | 19075 ft | 318 kts | 230° |
| 2026-05-07 16:52 | 45.33571 | 12.89811 | 18708 ft | 316 kts | 230° |
| 2026-05-07 16:52 | 45.32164 | 12.87431 | 18361 ft | 315 kts | 230° |
| 2026-05-07 16:52 | 45.30890 | 12.84920 | 17974 ft | 313 kts | 239° |
| 2026-05-07 16:53 | 45.29784 | 12.82251 | 17584 ft | 312 kts | 239° |
| 2026-05-07 16:53 | 45.28685 | 12.79615 | 17184 ft | 310 kts | 238° |
| 2026-05-07 16:53 | 45.27470 | 12.77101 | 16795 ft | 308 kts | 233° |
| 2026-05-07 16:53 | 45.26202 | 12.74633 | 16404 ft | 307 kts | 233° |
| 2026-05-07 16:54 | 45.24951 | 12.72188 | 16007 ft | 305 kts | 233° |
| 2026-05-07 16:54 | 45.23709 | 12.69758 | 15643 ft | 304 kts | 233° |
| 2026-05-07 16:54 | 45.22474 | 12.67335 | 15279 ft | 302 kts | 233° |
| 2026-05-07 16:54 | 45.21241 | 12.64916 | 14921 ft | 301 kts | 233° |
| 2026-05-07 16:55 | 45.20019 | 12.62525 | 14681 ft | 300 kts | 233° |
| 2026-05-07 16:55 | 45.18786 | 12.60118 | 14441 ft | 300 kts | 233° |
| 2026-05-07 16:55 | 45.17566 | 12.57735 | 14199 ft | 299 kts | 233° |
| 2026-05-07 16:55 | 45.16345 | 12.55352 | 13960 ft | 298 kts | 233° |
| 2026-05-07 16:56 | 45.15524 | 12.53751 | 13803 ft | 297 kts | 233° |
| 2026-05-07 16:56 | 45.14540 | 12.51220 | 13536 ft | 298 kts | 248° |
| 2026-05-07 16:56 | 45.14334 | 12.45356 | 13005 ft | 305 kts | 281° |
| 2026-05-07 16:57 | 45.15047 | 12.42510 | 12747 ft | 307 kts | 286° |
| 2026-05-07 16:57 | 45.15795 | 12.39689 | 12485 ft | 305 kts | 286° |
| 2026-05-07 16:57 | 45.16518 | 12.36944 | 12245 ft | 304 kts | 286° |
| 2026-05-07 16:57 | 45.17253 | 12.34135 | 11986 ft | 303 kts | 286° |
| 2026-05-07 16:58 | 45.17980 | 12.31353 | 11734 ft | 302 kts | 286° |
| 2026-05-07 16:58 | 45.18710 | 12.28561 | 11484 ft | 301 kts | 286° |
| 2026-05-07 16:58 | 45.19211 | 12.25745 | 11238 ft | 290 kts | 272° |
| 2026-05-07 16:58 | 45.19219 | 12.22946 | 10983 ft | 279 kts | 262° |
| 2026-05-07 16:59 | 45.19063 | 12.20223 | 10740 ft | 275 kts | 262° |
| 2026-05-07 16:59 | 45.18915 | 12.17522 | 10498 ft | 273 kts | 262° |
| 2026-05-07 16:59 | 45.18774 | 12.14860 | 10252 ft | 268 kts | 262° |
| 2026-05-07 16:59 | 45.18579 | 12.12266 | 10007 ft | 261 kts | 254° |
| 2026-05-07 17:00 | 45.17918 | 12.09931 | 9764 ft | 253 kts | 237° |
| 2026-05-07 17:00 | 45.16803 | 12.08050 | 9496 ft | 248 kts | 221° |
| 2026-05-07 17:00 | 45.15523 | 12.06456 | 9243 ft | 243 kts | 221° |
| 2026-05-07 17:00 | 45.14262 | 12.04876 | 9007 ft | 241 kts | 221° |
| 2026-05-07 17:01 | 45.13004 | 12.03298 | 8754 ft | 241 kts | 221° |
| 2026-05-07 17:01 | 45.11754 | 12.01725 | 8494 ft | 240 kts | 222° |
| 2026-05-07 17:01 | 45.10509 | 12.00155 | 8244 ft | 240 kts | 222° |
| 2026-05-07 17:01 | 45.09263 | 11.98584 | 7990 ft | 240 kts | 222° |
| 2026-05-07 17:02 | 45.08002 | 11.96994 | 7743 ft | 239 kts | 222° |
| 2026-05-07 17:02 | 45.06761 | 11.95432 | 7491 ft | 238 kts | 222° |
| 2026-05-07 17:02 | 45.05521 | 11.93874 | 7244 ft | 238 kts | 222° |
| 2026-05-07 17:02 | 45.04287 | 11.92324 | 6999 ft | 238 kts | 222° |
| 2026-05-07 17:03 | 45.03050 | 11.90769 | 6754 ft | 238 kts | 222° |
| 2026-05-07 17:03 | 45.01821 | 11.89210 | 6505 ft | 234 kts | 225° |
| 2026-05-07 17:03 | 45.01009 | 11.87301 | 6246 ft | 227 kts | 256° |
| 2026-05-07 17:03 | 45.01115 | 11.85129 | 5994 ft | 224 kts | 289° |
| 2026-05-07 17:04 | 45.02053 | 11.83361 | 5746 ft | 227 kts | 311° |
| 2026-05-07 17:04 | 45.03134 | 11.81737 | 5503 ft | 225 kts | 308° |
| 2026-05-07 17:04 | 45.04277 | 11.80215 | 5277 ft | 230 kts | 326° |
| 2026-05-07 17:04 | 45.05816 | 11.79649 | 5022 ft | 235 kts | 0° |
| 2026-05-07 17:05 | 45.07347 | 11.80415 | 4763 ft | 236 kts | 36° |
| 2026-05-07 17:05 | 45.08588 | 11.81928 | 4532 ft | 236 kts | 42° |
| 2026-05-07 17:05 | 45.09814 | 11.83474 | 4279 ft | 235 kts | 42° |
| 2026-05-07 17:05 | 45.11032 | 11.85010 | 4018 ft | 234 kts | 42° |
| 2026-05-07 17:06 | 45.12243 | 11.86541 | 3961 ft | 233 kts | 42° |
| 2026-05-07 17:06 | 45.13458 | 11.88076 | 3995 ft | 234 kts | 42° |
| 2026-05-07 17:06 | 45.14674 | 11.89612 | 3995 ft | 234 kts | 42° |
| 2026-05-07 17:06 | 45.15891 | 11.91147 | 3993 ft | 235 kts | 42° |
| 2026-05-07 17:07 | 45.17110 | 11.92679 | 3995 ft | 234 kts | 41° |
| 2026-05-07 17:07 | 45.18331 | 11.94210 | 3997 ft | 234 kts | 42° |
| 2026-05-07 17:07 | 45.19550 | 11.95742 | 3996 ft | 234 kts | 42° |
| 2026-05-07 17:07 | 45.20768 | 11.97274 | 3990 ft | 234 kts | 41° |
| 2026-05-07 17:08 | 45.21988 | 11.98812 | 3993 ft | 234 kts | 42° |
| 2026-05-07 17:08 | 45.23202 | 12.00346 | 3991 ft | 234 kts | 42° |
| 2026-05-07 17:08 | 45.24422 | 12.01888 | 3991 ft | 234 kts | 42° |
| 2026-05-07 17:08 | 45.25640 | 12.03427 | 3988 ft | 234 kts | 42° |
| 2026-05-07 17:09 | 45.26853 | 12.04959 | 3992 ft | 233 kts | 42° |
| 2026-05-07 17:09 | 45.28051 | 12.06474 | 3990 ft | 225 kts | 42° |
| 2026-05-07 17:09 | 45.29217 | 12.07952 | 3990 ft | 224 kts | 42° |
| 2026-05-07 17:09 | 45.30383 | 12.09434 | 3865 ft | 224 kts | 42° |
| 2026-05-07 17:10 | 45.31535 | 12.10901 | 3611 ft | 218 kts | 43° |
| 2026-05-07 17:10 | 45.32624 | 12.12285 | 3376 ft | 204 kts | 42° |
| 2026-05-07 17:10 | 45.33676 | 12.13624 | 3138 ft | 202 kts | 43° |
| 2026-05-07 17:10 | 45.34724 | 12.14963 | 2875 ft | 202 kts | 43° |
| 2026-05-07 17:11 | 45.35762 | 12.16291 | 2625 ft | 200 kts | 44° |
| 2026-05-07 17:11 | 45.36798 | 12.17615 | 2379 ft | 199 kts | 43° |
| 2026-05-07 17:11 | 45.37821 | 12.18924 | 2122 ft | 197 kts | 43° |
| 2026-05-07 17:11 | 45.38844 | 12.20230 | 2000 ft | 196 kts | 44° |
| 2026-05-07 17:12 | 45.39800 | 12.21449 | 2007 ft | 180 kts | 43° |
| 2026-05-07 17:12 | 45.40723 | 12.22628 | 2006 ft | 177 kts | 44° |
| 2026-05-07 17:12 | 45.41639 | 12.23799 | 2004 ft | 176 kts | 43° |
| 2026-05-07 17:12 | 45.42547 | 12.24961 | 2009 ft | 175 kts | 43° |
| 2026-05-07 17:13 | 45.43432 | 12.26085 | 1936 ft | 165 kts | 46° |
| 2026-05-07 17:13 | 45.44286 | 12.27108 | 1626 ft | 156 kts | 43° |
| 2026-05-07 17:13 | 45.45112 | 12.28077 | 1427 ft | 153 kts | 47° |
| 2026-05-07 17:13 | 45.45878 | 12.29105 | 1176 ft | 149 kts | 49° |
| 2026-05-07 17:14 | 45.46621 | 12.30137 | 908 ft | 148 kts | 47° |
| 2026-05-07 17:14 | 45.47388 | 12.31101 | 663 ft | 146 kts | 46° |
| 2026-05-07 17:14 | 45.48154 | 12.32029 | 446 ft | 145 kts | 49° |
| 2026-05-07 17:14 | 45.48862 | 12.33010 | 252 ft | 142 kts | 51° |
| 2026-05-07 17:15 | 45.49580 | 12.33966 | 35 ft | 141 kts | 47° |
| 2026-05-07 17:15 | 45.50227 | 12.34837 | 14 ft | 98 kts | 38° |
| 2026-05-07 17:15 | 45.50500 | 12.35141 | 13 ft | 26 kts | 57° |
| 2026-05-07 17:15 | 45.50600 | 12.35274 | 13 ft | 17 kts | 30° |
| 2026-05-07 17:16 | 45.50682 | 12.35395 | 17 ft | 20 kts | 45° |
| 2026-05-07 17:16 | 45.50814 | 12.35530 | 17 ft | 25 kts | 13° |
| 2026-05-07 17:16 | 45.50965 | 12.35554 | 16 ft | 19 kts | 338° |
| 2026-05-07 17:16 | 45.50988 | 12.35429 | 18 ft | 13 kts | 263° |
| 2026-05-07 17:17 | 45.50963 | 12.35260 | 20 ft | 22 kts | 253° |
| 2026-05-07 17:17 | 45.50855 | 12.35074 | 19 ft | 27 kts | 222° |
| 2026-05-07 17:17 | 45.50697 | 12.34873 | 16 ft | 33 kts | 221° |
| 2026-05-07 17:17 | 45.50603 | 12.34674 | 15 ft | 24 kts | 263° |
| 2026-05-07 17:18 | 45.50596 | 12.34439 | 13 ft | 17 kts | 273° |
| 2026-05-07 17:18 | 45.50676 | 12.34281 | 6 ft | 13 kts | 302° |
| 2026-05-07 17:18 | 45.50733 | 12.34230 | 5 ft | 10 kts | 32° |
| 2026-05-07 17:18 | 45.50746 | 12.34300 | 1 ft | 0 kts | 76° |